sensor_id;sensor_type;location;lat;lon;timestamp;pressure;altitude;pressure_sealevel;temperature;humidity
15050;BME280;7622;42.724;23.250;2022-09-17T00:00:36;93886.47;;;18.18;100.00
15050;BME280;7622;42.724;23.250;2022-09-17T00:03:05;93877.81;;;18.11;100.00
15050;BME280;7622;42.724;23.250;2022-09-17T00:05:32;93875.97;;;18.05;100.00
15050;BME280;7622;42.724;23.250;2022-09-17T00:08:02;93868.84;;;18.19;100.00
15050;BME280;7622;42.724;23.250;2022-09-17T00:10:29;93874.78;;;18.01;100.00
15050;BME280;7622;42.724;23.250;2022-09-17T00:12:56;93871.94;;;18.09;100.00
15050;BME280;7622;42.724;23.250;2022-09-17T00:15:23;93859.88;;;17.95;100.00
15050;BME280;7622;42.724;23.250;2022-09-17T00:17:53;93857.97;;;18.15;100.00
15050;BME280;7622;42.724;23.250;2022-09-17T00:20:23;93857.06;;;17.90;100.00
15050;BME280;7622;42.724;23.250;2022-09-17T00:22:50;93852.84;;;17.82;100.00
15050;BME280;7622;42.724;23.250;2022-09-17T00:25:17;93859.69;;;17.90;100.00
15050;BME280;7622;42.724;23.250;2022-09-17T00:27:44;93857.59;;;18.05;100.00
15050;BME280;7622;42.724;23.250;2022-09-17T00:30:12;93857.16;;;18.15;100.00
15050;BME280;7622;42.724;23.250;2022-09-17T00:32:39;93863.69;;;17.99;100.00
15050;BME280;7622;42.724;23.250;2022-09-17T00:35:06;93857.00;;;18.03;100.00
15050;BME280;7622;42.724;23.250;2022-09-17T00:37:34;93873.16;;;18.06;100.00
15050;BME280;7622;42.724;23.250;2022-09-17T00:40:02;93861.31;;;17.91;100.00
15050;BME280;7622;42.724;23.250;2022-09-17T00:42:29;93851.81;;;17.90;100.00
15050;BME280;7622;42.724;23.250;2022-09-17T00:44:56;93856.69;;;17.80;100.00
15050;BME280;7622;42.724;23.250;2022-09-17T00:47:28;93875.28;;;17.71;100.00
15050;BME280;7622;42.724;23.250;2022-09-17T00:49:57;93876.47;;;17.89;100.00
15050;BME280;7622;42.724;23.250;2022-09-17T00:52:28;93891.44;;;17.82;100.00
15050;BME280;7622;42.724;23.250;2022-09-17T00:55:02;93888.59;;;17.83;100.00
15050;BME280;7622;42.724;23.250;2022-09-17T00:57:31;93891.84;;;17.59;100.00
15050;BME280;7622;42.724;23.250;2022-09-17T00:59:59;93880.34;;;17.66;100.00
15050;BME280;7622;42.724;23.250;2022-09-17T01:02:26;93870.47;;;17.68;100.00
15050;BME280;7622;42.724;23.250;2022-09-17T01:04:53;93878.91;;;17.57;100.00
15050;BME280;7622;42.724;23.250;2022-09-17T01:07:43;93874.66;;;17.56;100.00
15050;BME280;7622;42.724;23.250;2022-09-17T01:10:22;93868.00;;;17.60;100.00
15050;BME280;7622;42.724;23.250;2022-09-17T01:13:04;93855.72;;;17.67;100.00
15050;BME280;7622;42.724;23.250;2022-09-17T01:15:36;93859.75;;;17.70;100.00
15050;BME280;7622;42.724;23.250;2022-09-17T01:18:21;93862.75;;;17.74;100.00
15050;BME280;7622;42.724;23.250;2022-09-17T01:21:26;93868.84;;;17.54;100.00
15050;BME280;7622;42.724;23.250;2022-09-17T01:30:06;93853.91;;;17.55;100.00
15050;BME280;7622;42.724;23.250;2022-09-17T01:32:41;93838.16;;;17.61;100.00
15050;BME280;7622;42.724;23.250;2022-09-17T01:35:16;93829.03;;;17.64;100.00
15050;BME280;7622;42.724;23.250;2022-09-17T01:37:55;93813.88;;;17.59;100.00
15050;BME280;7622;42.724;23.250;2022-09-17T01:40:26;93819.69;;;17.81;100.00
15050;BME280;7622;42.724;23.250;2022-09-17T01:43:00;93841.75;;;17.67;100.00
15050;BME280;7622;42.724;23.250;2022-09-17T01:45:34;93859.75;;;17.63;100.00
15050;BME280;7622;42.724;23.250;2022-09-17T01:48:06;93870.06;;;17.52;100.00
15050;BME280;7622;42.724;23.250;2022-09-17T01:50:38;93855.53;;;17.49;100.00
15050;BME280;7622;42.724;23.250;2022-09-17T01:53:07;93852.28;;;17.47;100.00
15050;BME280;7622;42.724;23.250;2022-09-17T01:55:37;93867.66;;;17.24;100.00
15050;BME280;7622;42.724;23.250;2022-09-17T01:58:10;93841.63;;;17.22;100.00
15050;BME280;7622;42.724;23.250;2022-09-17T02:00:41;93819.19;;;17.33;100.00
15050;BME280;7622;42.724;23.250;2022-09-17T02:03:16;93802.22;;;17.36;100.00
15050;BME280;7622;42.724;23.250;2022-09-17T02:05:49;93795.16;;;17.36;100.00
15050;BME280;7622;42.724;23.250;2022-09-17T02:08:21;93778.03;;;17.27;100.00
15050;BME280;7622;42.724;23.250;2022-09-17T02:10:52;93750.16;;;17.26;100.00
15050;BME280;7622;42.724;23.250;2022-09-17T02:13:24;93730.91;;;17.45;100.00
15050;BME280;7622;42.724;23.250;2022-09-17T02:15:56;93718.19;;;17.36;100.00
15050;BME280;7622;42.724;23.250;2022-09-17T02:18:27;93734.31;;;17.52;100.00
15050;BME280;7622;42.724;23.250;2022-09-17T02:21:04;93742.19;;;17.52;100.00
15050;BME280;7622;42.724;23.250;2022-09-17T02:23:38;93738.06;;;17.18;100.00
15050;BME280;7622;42.724;23.250;2022-09-17T02:26:12;93733.63;;;17.19;100.00
15050;BME280;7622;42.724;23.250;2022-09-17T02:28:42;93775.22;;;17.02;100.00
15050;BME280;7622;42.724;23.250;2022-09-17T02:31:12;93819.81;;;17.22;100.00
15050;BME280;7622;42.724;23.250;2022-09-17T02:33:42;93825.06;;;17.15;100.00
15050;BME280;7622;42.724;23.250;2022-09-17T02:36:10;93786.97;;;16.86;100.00
15050;BME280;7622;42.724;23.250;2022-09-17T02:38:40;93719.56;;;16.80;100.00
15050;BME280;7622;42.724;23.250;2022-09-17T02:41:14;93758.34;;;16.65;100.00
15050;BME280;7622;42.724;23.250;2022-09-17T02:43:49;93717.56;;;16.69;100.00
15050;BME280;7622;42.724;23.250;2022-09-17T02:46:33;93758.72;;;16.62;100.00
15050;BME280;7622;42.724;23.250;2022-09-17T02:49:18;93735.72;;;16.71;100.00
15050;BME280;7622;42.724;23.250;2022-09-17T02:51:55;93706.69;;;16.72;100.00
15050;BME280;7622;42.724;23.250;2022-09-17T02:54:29;93699.00;;;16.84;100.00
15050;BME280;7622;42.724;23.250;2022-09-17T02:57:05;93672.53;;;16.92;100.00
15050;BME280;7622;42.724;23.250;2022-09-17T02:59:37;93697.53;;;16.94;100.00
15050;BME280;7622;42.724;23.250;2022-09-17T03:02:14;93687.69;;;16.90;100.00
15050;BME280;7622;42.724;23.250;2022-09-17T03:04:43;93706.66;;;16.92;100.00
15050;BME280;7622;42.724;23.250;2022-09-17T03:07:12;93717.97;;;16.79;100.00
15050;BME280;7622;42.724;23.250;2022-09-17T03:09:40;93728.84;;;16.89;100.00
15050;BME280;7622;42.724;23.250;2022-09-17T03:12:08;93727.22;;;16.88;100.00
15050;BME280;7622;42.724;23.250;2022-09-17T03:14:35;93716.34;;;16.85;100.00
15050;BME280;7622;42.724;23.250;2022-09-17T03:17:02;93712.28;;;16.96;100.00
15050;BME280;7622;42.724;23.250;2022-09-17T03:19:29;93706.00;;;17.03;100.00
15050;BME280;7622;42.724;23.250;2022-09-17T03:21:57;93684.38;;;17.21;100.00
15050;BME280;7622;42.724;23.250;2022-09-17T03:24:24;93665.81;;;17.09;100.00
15050;BME280;7622;42.724;23.250;2022-09-17T03:26:51;93652.94;;;17.08;100.00
15050;BME280;7622;42.724;23.250;2022-09-17T03:29:18;93657.75;;;17.11;100.00
15050;BME280;7622;42.724;23.250;2022-09-17T03:31:45;93669.69;;;17.07;100.00
15050;BME280;7622;42.724;23.250;2022-09-17T03:34:11;93669.69;;;17.07;100.00
15050;BME280;7622;42.724;23.250;2022-09-17T03:36:38;93669.88;;;17.05;100.00
15050;BME280;7622;42.724;23.250;2022-09-17T03:39:06;93683.28;;;16.77;100.00
15050;BME280;7622;42.724;23.250;2022-09-17T03:41:33;93688.47;;;16.90;100.00
15050;BME280;7622;42.724;23.250;2022-09-17T03:44:00;93693.91;;;16.96;100.00
15050;BME280;7622;42.724;23.250;2022-09-17T03:46:27;93691.69;;;17.06;100.00
15050;BME280;7622;42.724;23.250;2022-09-17T03:48:54;93682.56;;;17.08;100.00
15050;BME280;7622;42.724;23.250;2022-09-17T03:51:20;93673.06;;;17.20;100.00
15050;BME280;7622;42.724;23.250;2022-09-17T03:53:47;93684.19;;;17.09;100.00
15050;BME280;7622;42.724;23.250;2022-09-17T03:56:15;93682.38;;;17.10;100.00
15050;BME280;7622;42.724;23.250;2022-09-17T03:58:42;93693.25;;;17.20;100.00
15050;BME280;7622;42.724;23.250;2022-09-17T04:01:09;93701.47;;;17.30;100.00
15050;BME280;7622;42.724;23.250;2022-09-17T04:03:36;93683.81;;;17.50;100.00
15050;BME280;7622;42.724;23.250;2022-09-17T04:06:03;93693.91;;;17.53;100.00
15050;BME280;7622;42.724;23.250;2022-09-17T04:08:30;93711.50;;;17.46;100.00
15050;BME280;7622;42.724;23.250;2022-09-17T04:10:57;93729.66;;;17.61;100.00
15050;BME280;7622;42.724;23.250;2022-09-17T04:13:25;93739.22;;;17.42;100.00
15050;BME280;7622;42.724;23.250;2022-09-17T04:15:51;93740.78;;;17.50;100.00
15050;BME280;7622;42.724;23.250;2022-09-17T04:18:18;93755.94;;;17.54;100.00
15050;BME280;7622;42.724;23.250;2022-09-17T04:20:45;93763.81;;;17.48;100.00
15050;BME280;7622;42.724;23.250;2022-09-17T04:23:12;93737.44;;;17.16;100.00
15050;BME280;7622;42.724;23.250;2022-09-17T04:25:39;93777.91;;;17.60;100.00
15050;BME280;7622;42.724;23.250;2022-09-17T04:28:06;93775.97;;;17.42;100.00
15050;BME280;7622;42.724;23.250;2022-09-17T04:30:34;93781.78;;;17.44;100.00
15050;BME280;7622;42.724;23.250;2022-09-17T04:33:01;93793.91;;;17.45;100.00
15050;BME280;7622;42.724;23.250;2022-09-17T04:35:28;93792.53;;;17.36;100.00
15050;BME280;7622;42.724;23.250;2022-09-17T04:37:55;93818.75;;;17.49;100.00
15050;BME280;7622;42.724;23.250;2022-09-17T04:40:23;93815.09;;;17.63;100.00
15050;BME280;7622;42.724;23.250;2022-09-17T04:42:51;93822.72;;;17.78;100.00
15050;BME280;7622;42.724;23.250;2022-09-17T04:45:18;93825.09;;;17.93;100.00
15050;BME280;7622;42.724;23.250;2022-09-17T04:47:46;93829.13;;;17.95;100.00
15050;BME280;7622;42.724;23.250;2022-09-17T04:50:16;93845.06;;;18.07;100.00
15050;BME280;7622;42.724;23.250;2022-09-17T04:52:42;93856.34;;;18.14;100.00
15050;BME280;7622;42.724;23.250;2022-09-17T04:55:10;93866.44;;;18.17;100.00
15050;BME280;7622;42.724;23.250;2022-09-17T04:57:37;93889.06;;;18.25;100.00
15050;BME280;7622;42.724;23.250;2022-09-17T05:00:05;93871.09;;;18.15;100.00
15050;BME280;7622;42.724;23.250;2022-09-17T05:02:33;93882.78;;;18.26;100.00
15050;BME280;7622;42.724;23.250;2022-09-17T05:05:02;93866.53;;;18.42;100.00
15050;BME280;7622;42.724;23.250;2022-09-17T05:07:28;93837.78;;;18.40;100.00
15050;BME280;7622;42.724;23.250;2022-09-17T05:09:55;93832.50;;;18.47;100.00
15050;BME280;7622;42.724;23.250;2022-09-17T05:12:22;93829.66;;;18.48;100.00
15050;BME280;7622;42.724;23.250;2022-09-17T05:14:49;93830.41;;;18.62;100.00
15050;BME280;7622;42.724;23.250;2022-09-17T05:17:15;93824.63;;;18.78;100.00
15050;BME280;7622;42.724;23.250;2022-09-17T05:19:42;93825.44;;;18.79;100.00
15050;BME280;7622;42.724;23.250;2022-09-17T05:22:10;93811.59;;;18.90;100.00
15050;BME280;7622;42.724;23.250;2022-09-17T05:24:37;93814.91;;;19.04;100.00
15050;BME280;7622;42.724;23.250;2022-09-17T05:27:04;93806.91;;;18.92;100.00
15050;BME280;7622;42.724;23.250;2022-09-17T05:29:31;93822.88;;;18.97;100.00
15050;BME280;7622;42.724;23.250;2022-09-17T05:31:58;93815.56;;;18.99;100.00
15050;BME280;7622;42.724;23.250;2022-09-17T05:34:25;93815.03;;;18.91;100.00
15050;BME280;7622;42.724;23.250;2022-09-17T05:36:51;93847.03;;;18.87;100.00
15050;BME280;7622;42.724;23.250;2022-09-17T05:39:19;93817.81;;;18.96;100.00
15050;BME280;7622;42.724;23.250;2022-09-17T05:41:50;93822.22;;;19.02;100.00
15050;BME280;7622;42.724;23.250;2022-09-17T05:44:17;93815.56;;;18.99;100.00
15050;BME280;7622;42.724;23.250;2022-09-17T05:46:45;93806.31;;;18.90;100.00
15050;BME280;7622;42.724;23.250;2022-09-17T05:49:12;93816.31;;;19.06;100.00
15050;BME280;7622;42.724;23.250;2022-09-17T05:51:39;93815.66;;;19.11;100.00
15050;BME280;7622;42.724;23.250;2022-09-17T05:54:06;93808.16;;;19.14;100.00
15050;BME280;7622;42.724;23.250;2022-09-17T05:56:34;93817.94;;;19.07;100.00
15050;BME280;7622;42.724;23.250;2022-09-17T05:59:01;93823.72;;;18.91;100.00
15050;BME280;7622;42.724;23.250;2022-09-17T06:01:28;93820.50;;;18.89;100.00
15050;BME280;7622;42.724;23.250;2022-09-17T06:03:55;93823.94;;;18.89;100.00
15050;BME280;7622;42.724;23.250;2022-09-17T06:06:22;93833.19;;;18.74;100.00
15050;BME280;7622;42.724;23.250;2022-09-17T06:08:50;93872.81;;;18.79;100.00
15050;BME280;7622;42.724;23.250;2022-09-17T06:11:17;93866.91;;;18.83;100.00
15050;BME280;7622;42.724;23.250;2022-09-17T06:13:45;93868.03;;;18.63;100.00
15050;BME280;7622;42.724;23.250;2022-09-17T06:16:11;93879.00;;;18.60;100.00
15050;BME280;7622;42.724;23.250;2022-09-17T06:18:38;93874.91;;;18.64;100.00
15050;BME280;7622;42.724;23.250;2022-09-17T06:21:05;93876.97;;;18.55;100.00
15050;BME280;7622;42.724;23.250;2022-09-17T06:23:32;93876.13;;;18.61;100.00
15050;BME280;7622;42.724;23.250;2022-09-17T06:26:00;93908.53;;;18.62;100.00
15050;BME280;7622;42.724;23.250;2022-09-17T06:28:28;93895.13;;;18.70;100.00
15050;BME280;7622;42.724;23.250;2022-09-17T06:31:00;93906.91;;;18.61;100.00
15050;BME280;7622;42.724;23.250;2022-09-17T06:33:28;93906.78;;;18.87;100.00
15050;BME280;7622;42.724;23.250;2022-09-17T06:35:56;93908.72;;;18.98;100.00
15050;BME280;7622;42.724;23.250;2022-09-17T06:38:25;93898.03;;;19.18;100.00
15050;BME280;7622;42.724;23.250;2022-09-17T06:40:52;93879.81;;;19.16;100.00
15050;BME280;7622;42.724;23.250;2022-09-17T06:43:19;93890.75;;;19.38;100.00
15050;BME280;7622;42.724;23.250;2022-09-17T06:45:51;93870.63;;;19.25;100.00
15050;BME280;7622;42.724;23.250;2022-09-17T06:48:19;93863.84;;;19.11;100.00
15050;BME280;7622;42.724;23.250;2022-09-17T06:50:46;93808.78;;;18.85;100.00
15050;BME280;7622;42.724;23.250;2022-09-17T06:53:13;93864.81;;;19.17;100.00
15050;BME280;7622;42.724;23.250;2022-09-17T06:55:40;93856.28;;;19.21;100.00
15050;BME280;7622;42.724;23.250;2022-09-17T06:58:07;93855.09;;;19.17;100.00
15050;BME280;7622;42.724;23.250;2022-09-17T07:00:34;93850.91;;;19.35;100.00
15050;BME280;7622;42.724;23.250;2022-09-17T07:03:01;93846.78;;;19.20;100.00
15050;BME280;7622;42.724;23.250;2022-09-17T07:05:29;93829.34;;;19.19;100.00
15050;BME280;7622;42.724;23.250;2022-09-17T07:07:59;93822.94;;;19.34;100.00
15050;BME280;7622;42.724;23.250;2022-09-17T07:10:26;93815.41;;;19.37;100.00
15050;BME280;7622;42.724;23.250;2022-09-17T07:12:54;93785.88;;;19.35;100.00
15050;BME280;7622;42.724;23.250;2022-09-17T07:15:21;93813.19;;;19.59;100.00
15050;BME280;7622;42.724;23.250;2022-09-17T07:17:48;93803.63;;;20.13;100.00
15050;BME280;7622;42.724;23.250;2022-09-17T07:20:16;93787.53;;;20.62;100.00
15050;BME280;7622;42.724;23.250;2022-09-17T07:22:44;93762.91;;;20.92;100.00
15050;BME280;7622;42.724;23.250;2022-09-17T07:25:11;93779.03;;;21.25;100.00
15050;BME280;7622;42.724;23.250;2022-09-17T07:27:37;93800.88;;;21.95;100.00
15050;BME280;7622;42.724;23.250;2022-09-17T07:30:05;93825.41;;;22.31;100.00
15050;BME280;7622;42.724;23.250;2022-09-17T07:32:32;93808.91;;;21.49;100.00
15050;BME280;7622;42.724;23.250;2022-09-17T07:34:59;93808.75;;;21.09;100.00
15050;BME280;7622;42.724;23.250;2022-09-17T07:37:26;93801.88;;;21.19;100.00
15050;BME280;7622;42.724;23.250;2022-09-17T07:39:54;93796.81;;;22.16;100.00
15050;BME280;7622;42.724;23.250;2022-09-17T07:42:21;93795.38;;;22.82;100.00
15050;BME280;7622;42.724;23.250;2022-09-17T07:44:47;93782.81;;;23.44;100.00
15050;BME280;7622;42.724;23.250;2022-09-17T07:47:14;93784.22;;;23.30;100.00
15050;BME280;7622;42.724;23.250;2022-09-17T07:49:41;93779.81;;;22.86;100.00
15050;BME280;7622;42.724;23.250;2022-09-17T07:52:07;93787.78;;;22.57;100.00
15050;BME280;7622;42.724;23.250;2022-09-17T07:54:34;93787.03;;;22.17;100.00
15050;BME280;7622;42.724;23.250;2022-09-17T07:57:04;93773.66;;;22.52;100.00
15050;BME280;7622;42.724;23.250;2022-09-17T07:59:31;93779.66;;;23.09;100.00
15050;BME280;7622;42.724;23.250;2022-09-17T08:01:57;93785.25;;;23.84;100.00
15050;BME280;7622;42.724;23.250;2022-09-17T08:04:24;93771.50;;;24.31;100.00
15050;BME280;7622;42.724;23.250;2022-09-17T08:06:51;93765.09;;;24.54;100.00
15050;BME280;7622;42.724;23.250;2022-09-17T08:09:18;93759.47;;;24.50;100.00
15050;BME280;7622;42.724;23.250;2022-09-17T08:11:46;93756.56;;;24.52;100.00
15050;BME280;7622;42.724;23.250;2022-09-17T08:14:17;93757.53;;;24.19;100.00
15050;BME280;7622;42.724;23.250;2022-09-17T08:16:46;93762.63;;;24.47;100.00
15050;BME280;7622;42.724;23.250;2022-09-17T08:19:13;93761.41;;;24.60;100.00
15050;BME280;7622;42.724;23.250;2022-09-17T08:21:39;93762.97;;;24.56;100.00
15050;BME280;7622;42.724;23.250;2022-09-17T08:24:06;93762.34;;;24.76;100.00
15050;BME280;7622;42.724;23.250;2022-09-17T08:26:33;93765.47;;;24.94;100.00
15050;BME280;7622;42.724;23.250;2022-09-17T08:29:00;93773.03;;;25.13;100.00
15050;BME280;7622;42.724;23.250;2022-09-17T08:31:28;93771.19;;;25.55;100.00
15050;BME280;7622;42.724;23.250;2022-09-17T08:33:57;93753.88;;;25.47;100.00
15050;BME280;7622;42.724;23.250;2022-09-17T08:36:25;93752.22;;;25.78;100.00
15050;BME280;7622;42.724;23.250;2022-09-17T08:38:53;93744.91;;;25.59;100.00
15050;BME280;7622;42.724;23.250;2022-09-17T08:41:24;93768.53;;;25.55;100.00
15050;BME280;7622;42.724;23.250;2022-09-17T08:44:01;93753.16;;;25.20;100.00
15050;BME280;7622;42.724;23.250;2022-09-17T08:46:39;93753.19;;;25.25;100.00
15050;BME280;7622;42.724;23.250;2022-09-17T08:49:12;93753.03;;;25.05;100.00
15050;BME280;7622;42.724;23.250;2022-09-17T08:51:45;93761.34;;;25.08;100.00
15050;BME280;7622;42.724;23.250;2022-09-17T08:54:21;93704.63;;;24.66;100.00
15050;BME280;7622;42.724;23.250;2022-09-17T08:57:02;93738.59;;;24.64;100.00
15050;BME280;7622;42.724;23.250;2022-09-17T08:59:38;93765.69;;;24.61;100.00
15050;BME280;7622;42.724;23.250;2022-09-17T09:02:21;93756.72;;;24.18;100.00
15050;BME280;7622;42.724;23.250;2022-09-17T09:05:02;93765.19;;;23.93;100.00
15050;BME280;7622;42.724;23.250;2022-09-17T09:07:36;93733.25;;;23.45;100.00
15050;BME280;7622;42.724;23.250;2022-09-17T09:10:12;93754.44;;;23.06;100.00
15050;BME280;7622;42.724;23.250;2022-09-17T09:12:41;93737.44;;;22.86;100.00
15050;BME280;7622;42.724;23.250;2022-09-17T09:15:18;93759.75;;;22.73;100.00
15050;BME280;7622;42.724;23.250;2022-09-17T09:17:49;93774.63;;;22.62;100.00
15050;BME280;7622;42.724;23.250;2022-09-17T09:20:19;93776.88;;;22.54;100.00
15050;BME280;7622;42.724;23.250;2022-09-17T09:22:50;93772.91;;;22.39;100.00
15050;BME280;7622;42.724;23.250;2022-09-17T09:25:20;93786.31;;;22.21;100.00
15050;BME280;7622;42.724;23.250;2022-09-17T09:27:58;93796.16;;;22.09;100.00
15050;BME280;7622;42.724;23.250;2022-09-17T09:30:35;93800.41;;;22.10;100.00
15050;BME280;7622;42.724;23.250;2022-09-17T09:33:11;93810.69;;;21.83;100.00
15050;BME280;7622;42.724;23.250;2022-09-17T09:35:40;93817.81;;;21.83;100.00
15050;BME280;7622;42.724;23.250;2022-09-17T09:38:14;93813.72;;;21.64;100.00
15050;BME280;7622;42.724;23.250;2022-09-17T09:40:49;93821.50;;;21.58;100.00
15050;BME280;7622;42.724;23.250;2022-09-17T09:43:20;93833.25;;;21.39;100.00
15050;BME280;7622;42.724;23.250;2022-09-17T09:46:25;93843.59;;;21.29;100.00
15050;BME280;7622;42.724;23.250;2022-09-17T09:49:07;93854.78;;;21.13;100.00
15050;BME280;7622;42.724;23.250;2022-09-17T09:51:45;93851.66;;;21.04;100.00
15050;BME280;7622;42.724;23.250;2022-09-17T09:54:40;93858.41;;;20.89;100.00
15050;BME280;7622;42.724;23.250;2022-09-17T09:57:12;93845.31;;;20.82;100.00
15050;BME280;7622;42.724;23.250;2022-09-17T09:59:39;93827.03;;;20.69;100.00
15050;BME280;7622;42.724;23.250;2022-09-17T10:02:06;93804.97;;;20.52;100.00
15050;BME280;7622;42.724;23.250;2022-09-17T10:04:35;93787.34;;;20.34;100.00
15050;BME280;7622;42.724;23.250;2022-09-17T10:07:04;93774.47;;;20.26;100.00
15050;BME280;7622;42.724;23.250;2022-09-17T10:09:32;93752.09;;;20.28;100.00
15050;BME280;7622;42.724;23.250;2022-09-17T10:12:04;93720.28;;;20.12;100.00
15050;BME280;7622;42.724;23.250;2022-09-17T10:14:33;93718.75;;;19.74;100.00
15050;BME280;7622;42.724;23.250;2022-09-17T10:17:14;93714.56;;;19.55;100.00
15050;BME280;7622;42.724;23.250;2022-09-17T10:19:43;93696.81;;;19.44;100.00
15050;BME280;7622;42.724;23.250;2022-09-17T10:22:19;93681.09;;;19.37;100.00
15050;BME280;7622;42.724;23.250;2022-09-17T10:24:50;93664.38;;;19.13;100.00
15050;BME280;7622;42.724;23.250;2022-09-17T10:27:18;93707.44;;;19.01;100.00
15050;BME280;7622;42.724;23.250;2022-09-17T10:29:49;93707.19;;;19.02;100.00
15050;BME280;7622;42.724;23.250;2022-09-17T10:32:18;93713.06;;;19.04;100.00
15050;BME280;7622;42.724;23.250;2022-09-17T10:34:58;93743.78;;;19.10;100.00
15050;BME280;7622;42.724;23.250;2022-09-17T10:37:34;93722.97;;;19.02;100.00
15050;BME280;7622;42.724;23.250;2022-09-17T10:40:25;93706.50;;;19.13;100.00
15050;BME280;7622;42.724;23.250;2022-09-17T10:43:17;93737.56;;;19.23;100.00
15050;BME280;7622;42.724;23.250;2022-09-17T10:45:54;93723.69;;;19.34;100.00
15050;BME280;7622;42.724;23.250;2022-09-17T10:48:23;93708.81;;;19.40;100.00
15050;BME280;7622;42.724;23.250;2022-09-17T10:50:55;93708.50;;;19.29;100.00
15050;BME280;7622;42.724;23.250;2022-09-17T10:53:24;93712.34;;;19.34;100.00
15050;BME280;7622;42.724;23.250;2022-09-17T10:56:00;93690.69;;;19.32;100.00
15050;BME280;7622;42.724;23.250;2022-09-17T10:58:41;93699.31;;;19.39;100.00
15050;BME280;7622;42.724;23.250;2022-09-17T11:01:20;93695.09;;;19.56;100.00
15050;BME280;7622;42.724;23.250;2022-09-17T11:04:20;93693.72;;;19.65;100.00
15050;BME280;7622;42.724;23.250;2022-09-17T11:07:03;93722.88;;;19.70;100.00
15050;BME280;7622;42.724;23.250;2022-09-17T11:09:43;93737.72;;;19.83;100.00
15050;BME280;7622;42.724;23.250;2022-09-17T11:15:03;93723.72;;;20.42;100.00
15050;BME280;7622;42.724;23.250;2022-09-17T11:17:49;93740.34;;;20.54;100.00
15050;BME280;7622;42.724;23.250;2022-09-17T11:20:27;93734.44;;;20.94;100.00
15050;BME280;7622;42.724;23.250;2022-09-17T11:23:06;93724.25;;;21.09;100.00
15050;BME280;7622;42.724;23.250;2022-09-17T11:25:44;93724.78;;;21.11;100.00
15050;BME280;7622;42.724;23.250;2022-09-17T11:28:34;93727.56;;;20.81;100.00
15050;BME280;7622;42.724;23.250;2022-09-17T11:31:11;93714.34;;;20.93;100.00
15050;BME280;7622;42.724;23.250;2022-09-17T11:33:59;93703.13;;;20.74;100.00
15050;BME280;7622;42.724;23.250;2022-09-17T11:36:43;93708.25;;;20.57;100.00
15050;BME280;7622;42.724;23.250;2022-09-17T11:39:17;93670.72;;;20.55;100.00
15050;BME280;7622;42.724;23.250;2022-09-17T11:41:47;93705.72;;;20.62;100.00
15050;BME280;7622;42.724;23.250;2022-09-17T11:44:21;93703.66;;;20.64;100.00
15050;BME280;7622;42.724;23.250;2022-09-17T11:46:52;93708.94;;;20.64;100.00
15050;BME280;7622;42.724;23.250;2022-09-17T11:49:26;93702.41;;;20.67;100.00
15050;BME280;7622;42.724;23.250;2022-09-17T11:51:56;93693.38;;;20.74;100.00
15050;BME280;7622;42.724;23.250;2022-09-17T11:54:27;93690.81;;;20.91;100.00
15050;BME280;7622;42.724;23.250;2022-09-17T11:56:58;93689.66;;;20.99;100.00
15050;BME280;7622;42.724;23.250;2022-09-17T11:59:33;93658.25;;;20.74;100.00
15050;BME280;7622;42.724;23.250;2022-09-17T12:02:14;93685.31;;;20.93;100.00
15050;BME280;7622;42.724;23.250;2022-09-17T12:04:46;93670.25;;;20.81;100.00
15050;BME280;7622;42.724;23.250;2022-09-17T12:07:28;93684.16;;;20.89;100.00
15050;BME280;7622;42.724;23.250;2022-09-17T12:10:14;93678.19;;;20.81;100.00
15050;BME280;7622;42.724;23.250;2022-09-17T12:12:49;93656.41;;;20.74;100.00
15050;BME280;7622;42.724;23.250;2022-09-17T12:15:21;93682.81;;;20.74;100.00
15050;BME280;7622;42.724;23.250;2022-09-17T12:17:54;93679.78;;;20.82;100.00
15050;BME280;7622;42.724;23.250;2022-09-17T12:20:26;93674.41;;;20.77;100.00
15050;BME280;7622;42.724;23.250;2022-09-17T12:22:57;93662.69;;;20.62;100.00
15050;BME280;7622;42.724;23.250;2022-09-17T12:25:30;93654.44;;;20.70;100.00
15050;BME280;7622;42.724;23.250;2022-09-17T12:28:01;93658.34;;;20.56;100.00
15050;BME280;7622;42.724;23.250;2022-09-17T12:30:31;93670.97;;;20.54;100.00
15050;BME280;7622;42.724;23.250;2022-09-17T12:33:16;93658.78;;;20.41;100.00
15050;BME280;7622;42.724;23.250;2022-09-17T12:35:56;93648.59;;;20.33;100.00
15050;BME280;7622;42.724;23.250;2022-09-17T12:38:50;93650.16;;;20.34;100.00
15050;BME280;7622;42.724;23.250;2022-09-17T12:41:28;93643.88;;;20.35;100.00
15050;BME280;7622;42.724;23.250;2022-09-17T12:44:11;93639.94;;;20.26;100.00
15050;BME280;7622;42.724;23.250;2022-09-17T12:46:53;93642.91;;;20.18;100.00
15050;BME280;7622;42.724;23.250;2022-09-17T12:49:38;93627.06;;;20.06;100.00
15050;BME280;7622;42.724;23.250;2022-09-17T12:52:16;93633.59;;;20.03;100.00
15050;BME280;7622;42.724;23.250;2022-09-17T12:55:10;93628.88;;;20.05;100.00
15050;BME280;7622;42.724;23.250;2022-09-17T12:57:49;93625.44;;;19.93;100.00
15050;BME280;7622;42.724;23.250;2022-09-17T13:00:18;93613.34;;;19.74;100.00
15050;BME280;7622;42.724;23.250;2022-09-17T13:02:50;93612.81;;;19.84;100.00
15050;BME280;7622;42.724;23.250;2022-09-17T13:14:56;93601.69;;;19.93;100.00
15050;BME280;7622;42.724;23.250;2022-09-17T13:17:30;93612.94;;;20.00;100.00
15050;BME280;7622;42.724;23.250;2022-09-17T13:20:02;93596.31;;;19.88;100.00
15050;BME280;7622;42.724;23.250;2022-09-17T13:22:32;93591.75;;;19.95;100.00
15050;BME280;7622;42.724;23.250;2022-09-17T13:25:10;93581.41;;;19.82;100.00
15050;BME280;7622;42.724;23.250;2022-09-17T13:27:39;93593.25;;;19.91;100.00
15050;BME280;7622;42.724;23.250;2022-09-17T13:30:09;93594.72;;;19.99;100.00